Pagina principale
METAR-TAF:

METAR-TAF

Aeroporti :

Tunisi, Tunisia

Aeroporto di Tunisi-Cartagine

latitudine: 36-50N, longitudine: 010-14E, altezza: 3 m

Osservazione

Il bollettino è stato emesso 15 minuti fa, alle 06:30 UTC
Vento 10 kt da ovest, variando fra ovest/sud-ovest e nord-ovest
Temperature 26°C
Umidità 58%
Pressione 1011 hPa
Visibilità 10 km o più
Poco nuvoloso ad un'altezza di 2600 ft

METAR: DTTA 260630Z 27010KT 240V310 9999 FEW026 26/17 Q1011

Ora: 07:45 (06:45 UTC)

Previsione

Il bollettino è stato emesso 1 ora e 15 minuti fa, alle 05:30 UTC
Previsione valida dal 26 alle 06 UTC al 27 alle 06 UTC
Vento 10 kt da ovest
Visibilità 10 km o più
Poco nuvoloso ad un'altezza di 2600 ft

TAF: DTTA 260530Z 2606/2706 26010KT 9999 FEW026

Osservazioni e previsioni meteorologiche di più di 4000 aeroporti (messaggi METAR e TAF).

Le stazioni disponibili sono rappresentate dai dischi gialli e rossi sulla carta.

Puntare il mouse per vedere il nome della stazione.

Clicca sopra per visualizzare le osservazioni e previsioni meteorologiche.

Per cambiare la mappa : fare clic sui pulsanti verdi con una croce nera per ingrandire, il pulsante verde con un trattino per diminuire, o sulla freccia verde per le mappe adiacenti.


METAR-TAF: